Time;durP1;ratioP1;P1;durP2;ratioP2;P2;SDS_P1;SDS_P2;PMS_P1;PMS_P2;Temp;Humidity;BMP_temperature;BMP_pressure;BME280_temperature;BME280_humidity;BME280_pressure;Samples;Min_cycle;Max_cycle;Signal;HPM_P1;HPM_P2
2023/06/16 00:00:43;;;;;;;0.80;0.80;;;;;;;21.07;84.92;96472.47;4946440;28;20055;-66
2023/06/16 00:03:15;;;;;;;0.70;0.70;;;;;;;20.59;86.85;96467.19;4961687;28;20539;-67
2023/06/16 00:05:44;;;;;;;0.80;0.80;;;;;;;19.89;88.51;96382.13;4946019;28;20453;-67
2023/06/16 00:08:12;;;;;;;0.80;0.80;;;;;;;20.15;89.23;96428.78;4946831;28;20507;-67
2023/06/16 00:10:38;;;;;;;0.80;0.80;;;;;;;20.68;87.26;96450.41;4960415;28;20520;-66
2023/06/16 00:13:05;;;;;;;0.80;0.80;;;;;;;20.70;86.74;96459.19;4946660;28;20051;-65
2023/06/16 00:15:32;;;;;;;0.80;0.80;;;;;;;20.39;86.12;96382.97;4946044;28;20438;-66
2023/06/16 00:18:00;;;;;;;0.90;0.90;;;;;;;20.37;85.41;96373.44;4946572;28;20529;-67
2023/06/16 00:20:27;;;;;;;0.80;0.80;;;;;;;20.07;85.43;96312.09;4944558;29;20502;-67
2023/06/16 00:22:57;;;;;;;0.90;0.90;;;;;;;20.84;85.50;96427.75;4945682;28;20063;-68
2023/06/16 00:25:23;;;;;;;0.80;0.80;;;;;;;20.66;85.30;96399.41;4946216;28;20217;-67
2023/06/16 00:27:50;;;;;;;0.90;0.90;;;;;;;21.12;85.34;96452.19;4945890;28;20458;-68
2023/06/16 00:30:17;;;;;;;0.80;0.80;;;;;;;21.15;85.30;96445.63;4946294;28;20117;-66
2023/06/16 00:32:45;;;;;;;0.80;0.80;;;;;;;21.17;84.96;96448.00;4960603;28;20059;-66
2023/06/16 00:35:12;;;;;;;0.80;0.80;;;;;;;21.16;84.70;96435.97;4946310;28;20079;-67
2023/06/16 00:37:38;;;;;;;0.90;0.90;;;;;;;20.29;84.11;96298.94;4946039;28;20162;-66
2023/06/16 00:40:06;;;;;;;0.80;0.80;;;;;;;21.18;84.74;96433.50;4946250;28;20047;-65
2023/06/16 00:42:32;;;;;;;0.70;0.70;;;;;;;21.19;83.97;96429.41;4945957;28;20118;-67
2023/06/16 00:45:00;;;;;;;0.90;0.90;;;;;;;21.12;84.28;96445.78;4946066;28;20055;-67
2023/06/16 00:47:27;;;;;;;0.88;0.88;;;;;;;20.82;85.98;96430.22;4943887;28;20052;-67
2023/06/16 00:49:53;;;;;;;0.82;0.82;;;;;;;20.47;88.51;96425.78;4926986;29;20087;-67
2023/06/16 00:52:23;;;;;;;0.77;0.77;;;;;;;20.50;88.50;96427.69;4926667;29;20055;-66
2023/06/16 00:54:51;;;;;;;0.80;0.80;;;;;;;20.32;89.42;96430.25;4926961;29;20531;-67
2023/06/16 00:57:18;;;;;;;0.80;0.80;;;;;;;20.36;89.17;96423.25;4926599;29;20059;-67
2023/06/16 00:59:45;;;;;;;0.80;0.80;;;;;;;20.49;88.11;96421.25;4927002;29;20147;-66
2023/06/16 01:02:13;;;;;;;0.80;0.80;;;;;;;20.58;87.90;96424.16;4926588;29;20055;-67
2023/06/16 01:04:40;;;;;;;0.80;0.80;;;;;;;20.67;87.74;96420.69;4941239;29;20482;-67
2023/06/16 01:07:21;;;;;;;0.80;0.80;;;;;;;20.69;87.90;96418.22;4926570;29;20539;-68
2023/06/16 01:09:58;;;;;;;0.90;0.90;;;;;;;20.55;89.16;96427.88;4957001;28;20056;-67
2023/06/16 01:12:54;;;;;;;0.80;0.80;;;;;;;20.30;92.13;96424.28;4926063;29;20064;-67
2023/06/16 01:15:25;;;;;;;0.80;0.80;;;;;;;20.29;92.14;96431.94;4927786;29;20218;-66
2023/06/16 01:17:53;;;;;;;0.80;0.80;;;;;;;20.02;92.07;96403.41;4929738;29;20052;-66
2023/06/16 01:20:48;;;;;;;0.80;0.80;;;;;;;20.36;91.03;96434.53;4930653;29;20056;-68
2023/06/16 01:23:50;;;;;;;0.75;0.75;;;;;;;20.35;90.60;96427.34;4960450;28;20060;-68
2023/06/16 01:26:19;;;;;;;0.80;0.80;;;;;;;20.33;90.96;96418.53;4932310;29;20059;-69
2023/06/16 01:28:46;;;;;;;0.80;0.80;;;;;;;19.88;91.11;96347.63;4944078;29;20111;-68
2023/06/16 01:31:15;;;;;;;0.90;0.90;;;;;;;20.47;90.75;96411.69;4959837;28;20060;-68
2023/06/16 01:33:44;;;;;;;0.77;0.77;;;;;;;19.94;90.46;96334.56;4930452;29;20047;-67
2023/06/16 01:36:12;;;;;;;0.80;0.80;;;;;;;20.59;91.31;96413.72;4930051;29;20048;-67
2023/06/16 01:38:40;;;;;;;0.80;0.80;;;;;;;20.09;90.43;96306.81;4929743;29;20051;-68
2023/06/16 01:41:08;;;;;;;0.80;0.80;;;;;;;20.73;89.38;96397.16;4929548;29;20062;-67
2023/06/16 01:43:36;;;;;;;0.85;0.85;;;;;;;20.18;92.84;96411.00;4930127;29;20062;-67
2023/06/16 01:46:03;;;;;;;0.70;0.70;;;;;;;20.39;92.47;96427.22;4929724;29;20047;-67
2023/06/16 01:48:30;;;;;;;0.70;0.70;;;;;;;20.54;91.74;96414.28;4944100;29;20059;-68
2023/06/16 01:50:57;;;;;;;0.85;0.85;;;;;;;20.58;91.42;96412.91;4929575;29;20559;-66
2023/06/16 01:53:24;;;;;;;0.70;0.70;;;;;;;20.38;92.41;96389.06;4929229;29;20048;-66
2023/06/16 01:55:51;;;;;;;0.80;0.80;;;;;;;20.24;92.57;96355.75;4959897;28;20483;-67
2023/06/16 01:58:22;;;;;;;0.90;0.90;;;;;;;20.68;92.91;96444.78;4929735;29;20052;-66
2023/06/16 02:01:04;;;;;;;0.85;0.85;;;;;;;20.50;94.46;96433.31;4930028;29;20070;-66
2023/06/16 02:03:41;;;;;;;0.80;0.80;;;;;;;20.38;93.95;96395.47;4929654;29;20048;-66
2023/06/16 02:06:21;;;;;;;0.85;0.85;;;;;;;20.53;93.62;96421.91;4943790;29;20426;-67
2023/06/16 02:08:52;;;;;;;0.80;0.80;;;;;;;20.21;93.32;96382.78;4929244;29;20463;-66
2023/06/16 02:11:19;;;;;;;0.75;0.75;;;;;;;20.05;94.24;96365.97;4912095;29;20504;-66
2023/06/16 02:13:46;;;;;;;0.80;0.80;;;;;;;20.36;94.29;96414.06;4924904;29;20083;-66
2023/06/16 02:16:14;;;;;;;0.80;0.80;;;;;;;20.32;94.19;96399.31;4910108;29;20935;-67
2023/06/16 02:18:42;;;;;;;0.80;0.80;;;;;;;19.68;100.00;96413.69;4910166;29;20890;-66
2023/06/16 02:21:09;;;;;;;0.80;0.80;;;;;;;19.60;100.00;96415.13;4910366;29;20074;-67
2023/06/16 02:23:36;;;;;;;0.80;0.80;;;;;;;19.36;100.00;96378.81;4910075;29;20058;-66
2023/06/16 02:26:02;;;;;;;0.80;0.80;;;;;;;19.58;100.00;96423.19;4910126;29;20052;-66
2023/06/16 02:28:29;;;;;;;0.80;0.80;;;;;;;19.58;100.00;96419.13;4909074;29;20052;-68
2023/06/16 02:30:56;;;;;;;0.70;0.70;;;;;;;19.50;100.00;96412.16;4909726;29;20452;-69
2023/06/16 02:33:23;;;;;;;0.70;0.70;;;;;;;19.47;100.00;96423.50;4909658;29;20534;-71
2023/06/16 02:35:49;;;;;;;0.80;0.80;;;;;;;19.46;100.00;96428.31;4910249;29;20059;-69
2023/06/16 02:38:16;;;;;;;0.80;0.80;;;;;;;19.41;100.00;96431.66;4910094;29;20522;-69
2023/06/16 02:40:43;;;;;;;0.80;0.80;;;;;;;19.39;100.00;96422.88;4940302;29;20058;-69
2023/06/16 02:43:09;;;;;;;0.70;0.70;;;;;;;18.95;100.00;96361.88;4940113;29;20052;-69
2023/06/16 02:45:36;;;;;;;0.70;0.70;;;;;;;19.43;100.00;96414.34;4909736;29;20067;-69
2023/06/16 02:48:03;;;;;;;0.80;0.80;;;;;;;19.37;100.00;96408.50;4909991;29;20059;-68
2023/06/16 02:50:30;;;;;;;0.70;0.70;;;;;;;19.33;100.00;96401.41;4908559;29;20413;-68
2023/06/16 02:52:57;;;;;;;0.70;0.70;;;;;;;18.79;100.00;96350.72;4958169;28;20083;-68
2023/06/16 02:55:24;;;;;;;0.70;0.70;;;;;;;19.22;100.00;96418.50;4928786;29;20517;-68
2023/06/16 02:57:51;;;;;;;0.90;0.90;;;;;;;19.19;100.00;96422.19;4928695;29;20060;-68
2023/06/16 03:00:18;;;;;;;0.80;0.80;;;;;;;19.01;100.00;96413.47;4959478;28;20073;-67
2023/06/16 03:02:45;;;;;;;0.80;0.80;;;;;;;18.99;100.00;96424.34;4928339;29;20154;-67
2023/06/16 03:05:12;;;;;;;0.70;0.70;;;;;;;18.89;100.00;96422.59;4926814;29;20158;-67
2023/06/16 03:07:42;;;;;;;0.80;0.80;;;;;;;18.42;100.00;96353.25;4927790;29;20052;-66
2023/06/16 03:10:09;;;;;;;0.73;0.73;;;;;;;18.83;100.00;96415.94;4928593;29;20507;-67
2023/06/16 03:12:36;;;;;;;0.80;0.80;;;;;;;18.80;100.00;96410.41;4928251;29;20518;-66
2023/06/16 03:15:03;;;;;;;0.77;0.77;;;;;;;18.86;100.00;96409.44;4928639;29;20401;-67
2023/06/16 03:17:32;;;;;;;0.73;0.73;;;;;;;18.79;100.00;96415.25;4927911;29;20055;-67
2023/06/16 03:19:59;;;;;;;0.70;0.70;;;;;;;18.72;100.00;96418.22;4928160;29;20059;-67
2023/06/16 03:22:26;;;;;;;0.70;0.70;;;;;;;18.11;100.00;96321.94;4928013;29;20146;-67
2023/06/16 03:24:53;;;;;;;0.75;0.75;;;;;;;18.67;100.00;96421.53;4958473;28;20052;-68
2023/06/16 03:27:20;;;;;;;0.70;0.70;;;;;;;18.32;100.00;96380.28;4958679;28;20062;-67
2023/06/16 03:29:47;;;;;;;0.80;0.80;;;;;;;18.35;100.00;96376.63;4927902;29;20407;-67
2023/06/16 03:32:14;;;;;;;0.75;0.75;;;;;;;18.64;100.00;96422.41;4958465;28;20055;-67
2023/06/16 03:34:40;;;;;;;0.70;0.70;;;;;;;18.70;100.00;96419.91;4926611;29;20055;-67
2023/06/16 03:37:07;;;;;;;0.70;0.70;;;;;;;18.70;100.00;96420.66;4927896;29;20055;-67
2023/06/16 03:39:34;;;;;;;0.80;0.80;;;;;;;18.73;100.00;96419.78;4928158;29;20053;-67
2023/06/16 03:42:00;;;;;;;0.70;0.70;;;;;;;18.84;100.00;96414.69;4927689;29;20070;-67
2023/06/16 03:44:27;;;;;;;0.80;0.80;;;;;;;18.55;100.00;96362.53;4927784;29;20051;-67
2023/06/16 03:46:54;;;;;;;0.80;0.80;;;;;;;19.00;100.00;96416.72;4926009;29;20051;-67
2023/06/16 03:49:20;;;;;;;0.80;0.80;;;;;;;18.63;100.00;96353.53;4957803;28;20052;-67
2023/06/16 03:51:47;;;;;;;0.73;0.73;;;;;;;19.11;100.00;96420.81;4927051;29;20059;-67
2023/06/16 03:54:16;;;;;;;0.80;0.80;;;;;;;19.22;100.00;96418.50;4927278;29;20051;-67
2023/06/16 03:56:43;;;;;;;0.80;0.80;;;;;;;19.33;100.00;96412.66;4957892;28;20058;-67
2023/06/16 03:59:10;;;;;;;0.80;0.80;;;;;;;19.28;100.00;96405.53;4942106;29;20067;-67
2023/06/16 04:01:37;;;;;;;0.80;0.80;;;;;;;19.27;100.00;96392.69;4927913;29;20418;-67
2023/06/16 04:04:05;;;;;;;0.80;0.80;;;;;;;19.02;100.00;96350.47;4925899;29;20444;-67
2023/06/16 04:06:34;;;;;;;0.77;0.77;;;;;;;19.25;100.00;96371.91;4927311;29;20135;-67
2023/06/16 04:09:02;;;;;;;0.70;0.70;;;;;;;19.45;100.00;96409.91;4927289;29;20466;-67
2023/06/16 04:11:30;;;;;;;0.80;0.80;;;;;;;19.58;100.00;96402.28;4927450;29;20550;-67
2023/06/16 04:13:57;;;;;;;0.70;0.70;;;;;;;19.77;100.00;96408.19;4957473;28;20047;-66
2023/06/16 04:16:23;;;;;;;0.75;0.75;;;;;;;19.78;100.00;96404.13;4941757;29;20844;-67
2023/06/16 04:18:50;;;;;;;0.80;0.80;;;;;;;19.76;100.00;96401.00;4926667;29;20055;-67
2023/06/16 04:21:17;;;;;;;0.70;0.70;;;;;;;19.94;100.00;96407.66;4927115;29;20055;-67
2023/06/16 04:23:44;;;;;;;0.70;0.70;;;;;;;19.95;100.00;96408.47;4927185;29;20130;-67
2023/06/16 04:26:11;;;;;;;0.90;0.90;;;;;;;20.13;100.00;96415.13;4926532;29;20055;-67
2023/06/16 04:28:44;;;;;;;0.80;0.80;;;;;;;20.29;100.00;96412.25;4927220;29;20147;-67
2023/06/16 04:31:12;;;;;;;0.85;0.85;;;;;;;20.54;100.00;96414.28;4956935;28;20063;-68
2023/06/16 04:33:41;;;;;;;0.80;0.80;;;;;;;20.54;98.83;96388.94;4926931;29;20300;-67
2023/06/16 04:36:08;;;;;;;0.80;0.80;;;;;;;20.86;98.47;96414.03;4926432;29;20048;-67
2023/06/16 04:38:35;;;;;;;0.75;0.75;;;;;;;20.86;95.35;96383.84;4941589;29;20052;-67
2023/06/16 04:41:01;;;;;;;0.90;0.90;;;;;;;21.14;94.72;96415.09;4956524;28;20047;-66
2023/06/16 04:43:28;;;;;;;0.80;0.80;;;;;;;21.31;93.98;96414.50;4927131;29;20058;-67
2023/06/16 04:45:55;;;;;;;0.90;0.90;;;;;;;21.50;91.81;96416.22;4926834;29;20055;-66
2023/06/16 04:48:22;;;;;;;0.90;0.90;;;;;;;21.63;90.35;96416.97;4925715;29;20900;-65
2023/06/16 04:50:49;;;;;;;0.80;0.80;;;;;;;21.79;89.79;96416.81;4924773;29;20511;-65
2023/06/16 04:53:16;;;;;;;0.80;0.80;;;;;;;21.75;90.59;96409.72;4926167;29;20103;-65
2023/06/16 04:55:42;;;;;;;1.00;1.00;;;;;;;21.80;89.34;96412.75;4940942;29;20058;-65
2023/06/16 04:58:09;;;;;;;0.90;0.90;;;;;;;21.26;90.01;96347.44;4926456;29;20138;-65
2023/06/16 05:00:36;;;;;;;0.90;0.90;;;;;;;21.65;90.62;96411.66;4926396;29;20055;-66
2023/06/16 05:03:02;;;;;;;0.80;0.80;;;;;;;21.55;91.04;96412.03;4926996;29;20063;-66
2023/06/16 05:05:29;;;;;;;0.88;0.88;;;;;;;21.31;92.13;96374.28;4926543;29;20056;-67
2023/06/16 05:07:56;;;;;;;0.80;0.80;;;;;;;20.83;92.62;96289.00;4927161;29;20077;-66
2023/06/16 05:10:22;;;;;;;0.90;0.90;;;;;;;21.46;92.18;96387.41;4930967;28;20086;-66
2023/06/16 05:12:49;;;;;;;0.80;0.80;;;;;;;21.56;89.34;96403.13;4942793;28;20069;-64
2023/06/16 05:15:16;;;;;;;0.80;0.80;;;;;;;21.81;88.10;96397.41;4926179;29;20085;-64
2023/06/16 05:17:43;;;;;;;0.90;0.90;;;;;;;22.10;86.96;96443.03;4956715;28;20059;-65
2023/06/16 05:20:10;;;;;;;0.95;0.95;;;;;;;22.36;85.98;96407.78;4926257;29;20488;-65
2023/06/16 05:22:37;;;;;;;0.90;0.90;;;;;;;21.88;86.23;96397.13;4926143;29;20047;-64
2023/06/16 05:25:04;;;;;;;0.80;0.80;;;;;;;22.24;85.81;96405.81;4926160;29;20143;-66
2023/06/16 05:27:30;;;;;;;0.90;0.90;;;;;;;21.51;87.98;96400.91;4925763;29;20058;-65
2023/06/16 05:29:57;;;;;;;0.90;0.90;;;;;;;21.98;85.88;96412.88;4956415;28;20503;-65
2023/06/16 05:32:26;;;;;;;1.00;1.00;;;;;;;22.35;83.51;96385.66;4925967;29;20101;-65
2023/06/16 05:34:53;;;;;;;0.90;0.90;;;;;;;22.38;81.66;96348.81;4925219;29;20731;-62
2023/06/16 05:37:21;;;;;;;0.90;0.90;;;;;;;23.06;80.07;96404.09;4938881;29;20536;-70
2023/06/16 05:39:48;;;;;;;1.00;1.00;;;;;;;22.97;78.10;96356.06;4944515;28;20047;-62
2023/06/16 05:42:15;;;;;;;0.90;0.90;;;;;;;21.44;76.00;96122.16;4949662;28;20054;-66
2023/06/16 05:44:43;;;;;;;0.95;0.95;;;;;;;23.57;74.86;96401.50;4925399;29;20055;-61
2023/06/16 05:47:11;;;;;;;1.00;1.00;;;;;;;23.84;73.34;96398.66;4939324;28;20052;-64
2023/06/16 05:49:38;;;;;;;1.15;1.15;;;;;;;23.73;71.30;96393.50;4924718;28;20143;-66
2023/06/16 05:52:06;;;;;;;1.02;1.02;;;;;;;24.08;71.81;96393.16;4927441;29;20056;-67
2023/06/16 05:54:33;;;;;;;1.10;1.10;;;;;;;24.18;71.77;96395.50;4924652;28;20046;-64
2023/06/16 05:57:00;;;;;;;1.30;1.30;;;;;;;23.51;70.42;96332.72;4932552;29;20515;-62
2023/06/16 05:59:27;;;;;;;1.00;1.00;;;;;;;24.31;70.57;96393.25;4934430;28;20557;-62
2023/06/16 06:01:54;;;;;;;1.00;1.00;;;;;;;23.74;66.76;96304.56;4929446;28;20621;-66
2023/06/16 06:04:32;;;;;;;1.10;1.10;;;;;;;23.84;64.39;96378.88;4934519;28;20139;-65
2023/06/16 06:07:00;;;;;;;1.10;1.10;;;;;;;24.06;64.91;96393.63;4917989;28;20115;-64
2023/06/16 06:09:27;;;;;;;1.00;1.00;;;;;;;24.13;63.67;96393.31;4932427;29;20174;-63
2023/06/16 06:11:54;;;;;;;1.02;1.02;;;;;;;23.51;66.46;96346.84;4941497;29;20055;-63
2023/06/16 06:14:21;;;;;;;1.13;1.13;;;;;;;23.97;67.07;96379.50;4929199;29;20083;-65
2023/06/16 06:16:49;;;;;;;1.02;1.02;;;;;;;22.48;65.17;96196.44;4929801;29;20050;-61
2023/06/16 06:19:18;;;;;;;1.10;1.10;;;;;;;22.97;65.34;96233.81;4937935;28;20051;-65
2023/06/16 06:21:46;;;;;;;1.00;1.00;;;;;;;23.29;66.95;96394.28;4925994;29;20134;-71
2023/06/16 06:24:14;;;;;;;1.00;1.00;;;;;;;23.60;69.05;96372.31;4934993;28;20237;-69
2023/06/16 06:26:43;;;;;;;1.10;1.10;;;;;;;24.25;66.47;96388.75;4941764;29;20106;-70
2023/06/16 06:29:10;;;;;;;1.17;1.17;;;;;;;23.96;66.57;96360.16;4928592;29;20522;-64
2023/06/16 06:31:36;;;;;;;1.10;1.10;;;;;;;23.62;66.76;96256.66;4926993;29;20055;-67
2023/06/16 06:34:03;;;;;;;1.10;1.10;;;;;;;24.24;66.45;96325.66;4925490;28;20052;-70
2023/06/16 06:36:30;;;;;;;1.08;1.08;;;;;;;24.47;65.82;96333.41;4912552;29;20131;-63
2023/06/16 06:38:57;;;;;;;1.00;1.00;;;;;;;25.24;65.40;96386.22;4965297;28;20070;-64
2023/06/16 06:41:24;;;;;;;1.10;1.10;;;;;;;25.63;64.50;96383.44;4945193;28;20369;-67
2023/06/16 06:43:52;;;;;;;1.20;1.20;;;;;;;25.50;61.11;96386.53;4919159;29;20043;-66
2023/06/16 06:46:19;;;;;;;1.17;1.17;;;;;;;25.27;58.54;96311.56;4937483;29;20113;-69
2023/06/16 06:48:47;;;;;;;1.30;1.30;;;;;;;25.92;59.16;96380.66;4930213;28;20537;-61
2023/06/16 06:51:13;;;;;;;1.20;1.20;;;;;;;25.74;59.60;96355.28;4919682;29;20055;-63
2023/06/16 06:53:41;;;;;;;1.23;1.23;;;;;;;26.10;58.36;96364.25;4934616;28;20048;-65
2023/06/16 06:56:08;;;;;;;1.17;1.17;;;;;;;25.92;56.95;96383.50;4945513;28;20062;-63
2023/06/16 06:58:35;;;;;;;1.17;1.17;;;;;;;24.38;59.91;96381.59;4934235;28;20062;-66
2023/06/16 07:01:01;;;;;;;1.00;1.00;;;;;;;23.82;60.65;96279.56;4940151;28;20087;-66
2023/06/16 07:03:28;;;;;;;1.20;1.20;;;;;;;25.37;57.13;96317.19;4927472;29;20218;-63
2023/06/16 07:05:55;;;;;;;1.23;1.23;;;;;;;24.37;59.78;96374.38;4932682;29;20398;-69
2023/06/16 07:08:22;;;;;;;1.10;1.10;;;;;;;25.01;57.09;96361.50;4938539;29;20051;-65
2023/06/16 07:10:48;;;;;;;1.20;1.20;;;;;;;25.91;54.92;96376.28;4929634;28;20048;-65
2023/06/16 07:13:15;;;;;;;1.27;1.27;;;;;;;25.53;54.38;96371.38;4936940;28;20055;-69
2023/06/16 07:15:42;;;;;;;1.10;1.10;;;;;;;24.47;57.65;96310.78;4934184;29;20044;-67
2023/06/16 07:18:09;;;;;;;1.20;1.20;;;;;;;25.07;57.49;96268.09;4943665;29;20442;-65
2023/06/16 07:20:36;;;;;;;1.30;1.30;;;;;;;25.80;54.32;96307.94;4938793;28;20197;-65
2023/06/16 07:23:03;;;;;;;1.20;1.20;;;;;;;26.22;56.59;96368.09;4960511;28;20602;-64
2023/06/16 07:25:32;;;;;;;1.40;1.40;;;;;;;23.91;59.32;96211.63;4908766;29;20098;-66
2023/06/16 07:27:59;;;;;;;1.15;1.15;;;;;;;23.50;59.30;96056.91;4912522;29;20055;-69
2023/06/16 07:30:26;;;;;;;1.30;1.30;;;;;;;26.12;56.00;96370.25;4951965;28;20056;-62
2023/06/16 07:32:53;;;;;;;1.15;1.15;;;;;;;25.81;56.55;96264.91;4926235;29;20674;-64
2023/06/16 07:35:20;;;;;;;1.50;1.50;;;;;;;25.29;56.40;96309.00;4930136;29;20129;-66
2023/06/16 07:37:47;;;;;;;1.20;1.20;;;;;;;24.24;61.22;96365.31;4955896;28;20601;-63
2023/06/16 07:40:14;;;;;;;1.10;1.10;;;;;;;24.62;58.83;96268.38;4956683;28;20052;-65
2023/06/16 07:42:44;;;;;;;1.10;1.10;;;;;;;25.45;58.78;96343.91;4925373;29;20428;-63
2023/06/16 07:45:12;;;;;;;1.25;1.25;;;;;;;26.11;56.42;96384.94;4931822;29;20058;-64
2023/06/16 07:47:40;;;;;;;1.25;1.25;;;;;;;25.52;58.69;96383.22;4944605;28;20090;-63
2023/06/16 07:50:08;;;;;;;1.40;1.40;;;;;;;25.32;58.57;96347.72;4929959;28;20115;-67
2023/06/16 07:52:35;;;;;;;1.50;1.50;;;;;;;25.68;57.42;96348.72;4914312;29;20044;-60
2023/06/16 07:55:02;;;;;;;1.42;1.42;;;;;;;25.77;57.42;96331.59;4909498;29;20123;-66
2023/06/16 07:57:28;;;;;;;1.25;1.25;;;;;;;26.25;55.06;96321.66;4935935;29;20133;-62
2023/06/16 07:59:57;;;;;;;1.30;1.30;;;;;;;25.51;55.04;96381.66;4930959;28;20055;-61
2023/06/16 08:02:23;;;;;;;1.30;1.30;;;;;;;25.82;54.94;96379.16;4928225;28;20071;-64
2023/06/16 08:04:51;;;;;;;1.10;1.10;;;;;;;26.74;53.35;96375.69;4939045;29;20055;-62
2023/06/16 08:07:18;;;;;;;1.40;1.40;;;;;;;26.48;51.58;96317.91;4930241;28;20135;-66
2023/06/16 08:09:44;;;;;;;1.35;1.35;;;;;;;26.73;52.42;96382.63;4936676;29;20047;-62
2023/06/16 08:12:11;;;;;;;1.33;1.33;;;;;;;26.53;52.94;96382.56;4932442;29;20063;-63
2023/06/16 08:14:38;;;;;;;1.30;1.30;;;;;;;26.48;50.58;96380.41;4929153;28;20085;-63
2023/06/16 08:17:05;;;;;;;1.25;1.25;;;;;;;25.69;49.69;96324.78;4938627;28;20131;-68
2023/06/16 08:19:32;;;;;;;1.10;1.10;;;;;;;24.61;53.32;96295.13;4924602;29;20047;-68
2023/06/16 08:22:00;;;;;;;1.00;1.00;;;;;;;25.28;52.91;96378.34;4932077;29;20137;-67
2023/06/16 08:24:26;;;;;;;1.30;1.30;;;;;;;26.01;51.54;96397.63;4942916;28;20059;-66
2023/06/16 08:26:53;;;;;;;1.40;1.40;;;;;;;25.71;49.50;96248.44;4944203;28;20424;-75
2023/06/16 08:29:21;;;;;;;1.42;1.42;;;;;;;27.18;46.83;96382.03;4957972;28;20048;-73
2023/06/16 08:31:48;;;;;;;1.30;1.30;;;;;;;25.28;50.29;96329.34;4906149;29;20056;-66
2023/06/16 08:34:15;;;;;;;1.40;1.40;;;;;;;25.54;50.38;96268.00;4913341;29;20066;-67
2023/06/16 08:36:41;;;;;;;1.23;1.23;;;;;;;25.83;51.23;96377.91;4935592;28;20063;-67
2023/06/16 08:39:09;;;;;;;1.38;1.38;;;;;;;24.86;51.03;96360.66;4931468;29;20054;-64
2023/06/16 08:41:37;;;;;;;1.10;1.10;;;;;;;24.30;51.77;96233.16;4924591;28;20092;-66
2023/06/16 08:44:08;;;;;;;1.25;1.25;;;;;;;25.54;49.51;96346.66;4953308;28;20065;-63
2023/06/16 08:46:35;;;;;;;1.20;1.20;;;;;;;26.39;49.55;96372.78;4969644;28;20054;-67
2023/06/16 08:49:05;;;;;;;1.48;1.48;;;;;;;25.97;49.72;96277.81;4968441;28;20123;-66
2023/06/16 08:51:34;;;;;;;1.50;1.50;;;;;;;25.18;50.64;96280.41;4933605;28;20130;-68
2023/06/16 08:54:06;;;;;;;1.20;1.20;;;;;;;25.70;51.07;96371.72;4924172;29;20093;-67
2023/06/16 08:56:33;;;;;;;1.50;1.50;;;;;;;26.39;48.78;96377.66;4944045;29;20059;-63
2023/06/16 08:59:02;;;;;;;1.40;1.40;;;;;;;26.02;47.98;96314.06;4937633;29;20066;-68
2023/06/16 09:01:29;;;;;;;1.17;1.17;;;;;;;25.58;50.34;96361.41;4972211;28;20059;-68
2023/06/16 09:03:56;;;;;;;1.10;1.10;;;;;;;25.70;48.33;96309.31;4945227;28;20084;-68
2023/06/16 09:06:25;;;;;;;1.23;1.23;;;;;;;25.48;49.67;96304.00;4945335;28;20530;-68
2023/06/16 09:08:54;;;;;;;1.40;1.40;;;;;;;26.07;48.73;96355.94;4945254;28;20081;-66
2023/06/16 09:11:24;;;;;;;1.30;1.30;;;;;;;26.45;48.58;96352.97;4945797;29;20153;-66
2023/06/16 09:13:52;;;;;;;1.25;1.25;;;;;;;27.05;47.52;96356.00;4976008;28;20051;-65
2023/06/16 09:16:21;;;;;;;1.30;1.30;;;;;;;26.76;47.19;96339.03;4975838;28;20059;-65
2023/06/16 09:18:49;;;;;;;1.50;1.50;;;;;;;24.99;46.02;96046.59;4945462;28;20130;-67
2023/06/16 09:21:23;;;;;;;1.30;1.30;;;;;;;26.87;45.60;96322.16;4945219;28;20085;-66
2023/06/16 09:23:59;;;;;;;1.50;1.50;;;;;;;27.32;44.59;96312.94;4944066;29;20058;-67
2023/06/16 09:26:33;;;;;;;1.55;1.55;;;;;;;26.98;44.66;96276.81;4945767;28;20078;-68
2023/06/16 09:28:59;;;;;;;1.40;1.40;;;;;;;28.01;43.55;96329.78;4945074;28;20732;-66
2023/06/16 09:31:27;;;;;;;1.50;1.50;;;;;;;27.81;45.58;96332.66;4945519;28;20511;-67
2023/06/16 09:34:04;;;;;;;1.48;1.48;;;;;;;27.81;45.43;96338.34;4945742;28;20059;-65
2023/06/16 09:36:31;;;;;;;1.50;1.50;;;;;;;25.64;45.72;96055.94;4945256;28;20051;-67
2023/06/16 09:38:58;;;;;;;1.50;1.50;;;;;;;28.28;43.41;96324.88;4948793;28;20047;-66
2023/06/16 09:41:25;;;;;;;1.50;1.50;;;;;;;27.07;43.83;96344.91;4963598;28;20731;-67
2023/06/16 09:43:52;;;;;;;1.40;1.40;;;;;;;27.04;44.72;96252.06;4948876;28;20047;-67
2023/06/16 09:46:19;;;;;;;1.50;1.50;;;;;;;27.64;44.22;96303.25;4978935;28;20155;-67
2023/06/16 09:48:50;;;;;;;1.70;1.70;;;;;;;28.52;44.40;96311.06;4928143;29;20854;-66
2023/06/16 09:51:19;;;;;;;1.80;1.80;;;;;;;28.33;43.08;96201.63;4940472;29;20060;-67
2023/06/16 09:53:47;;;;;;;1.50;1.50;;;;;;;28.79;43.88;96253.47;4928124;29;20549;-67
2023/06/16 09:56:15;;;;;;;1.50;1.50;;;;;;;29.44;42.16;96329.28;4929398;29;20463;-66
2023/06/16 09:58:45;;;;;;;1.75;1.75;;;;;;;26.68;44.20;96195.81;4933143;29;20055;-67
2023/06/16 10:01:14;;;;;;;1.35;1.35;;;;;;;24.72;44.39;96061.06;4928194;29;20055;-67
2023/06/16 10:03:43;;;;;;;1.30;1.30;;;;;;;26.24;46.43;96334.31;4922920;29;20059;-62
2023/06/16 10:06:17;;;;;;;1.40;1.40;;;;;;;25.80;48.12;96316.47;4955300;28;20062;-64
2023/06/16 10:08:47;;;;;;;1.25;1.25;;;;;;;25.50;49.94;96297.84;4977660;28;20511;-63
2023/06/16 10:11:16;;;;;;;1.30;1.30;;;;;;;24.06;48.98;96030.66;4945153;28;20051;-64
2023/06/16 10:13:50;;;;;;;1.45;1.45;;;;;;;25.40;48.14;96194.25;4946380;28;20515;-63
2023/06/16 10:16:21;;;;;;;1.50;1.50;;;;;;;26.86;48.52;96320.56;4965753;28;20047;-67
2023/06/16 10:18:49;;;;;;;1.50;1.50;;;;;;;27.30;46.00;96304.13;4938466;28;20078;-66
2023/06/16 10:21:16;;;;;;;1.50;1.50;;;;;;;27.75;45.11;96328.19;4933343;29;20138;-62
2023/06/16 10:23:43;;;;;;;1.70;1.70;;;;;;;27.88;45.36;96315.16;4974031;28;20517;-65
2023/06/16 10:26:12;;;;;;;1.50;1.50;;;;;;;26.79;46.43;96331.59;4935239;29;20043;-63
2023/06/16 10:28:40;;;;;;;1.58;1.58;;;;;;;26.39;47.16;96292.47;4938648;28;20534;-65
2023/06/16 10:31:10;;;;;;;1.33;1.33;;;;;;;25.70;48.84;96218.50;4940096;29;20670;-69
2023/06/16 10:33:57;;;;;;;1.27;1.27;;;;;;;25.77;50.70;96323.09;4958160;28;20470;-67
2023/06/16 10:36:27;;;;;;;1.23;1.23;;;;;;;26.14;51.13;96276.06;4938386;29;20047;-61
2023/06/16 10:39:06;;;;;;;1.40;1.40;;;;;;;27.04;50.26;96302.47;4926726;29;20054;-63
2023/06/16 10:41:34;;;;;;;1.60;1.60;;;;;;;26.56;52.32;96313.38;4942524;29;20598;-68
2023/06/16 10:44:29;;;;;;;1.48;1.48;;;;;;;27.30;50.19;96309.81;4936845;28;20496;-66
2023/06/16 10:47:08;;;;;;;1.48;1.48;;;;;;;26.43;52.95;96312.94;4932200;29;20059;-64
2023/06/16 10:49:50;;;;;;;1.33;1.33;;;;;;;26.24;56.38;96314.44;4927072;28;20439;-63
2023/06/16 10:52:18;;;;;;;1.42;1.42;;;;;;;26.79;53.61;96241.41;4947273;28;20561;-65
2023/06/16 10:54:48;;;;;;;1.42;1.42;;;;;;;27.36;53.20;96310.66;4925378;28;20771;-63
2023/06/16 10:57:15;;;;;;;1.70;1.70;;;;;;;27.39;53.12;96311.75;4938953;29;20059;-66
2023/06/16 10:59:59;;;;;;;1.50;1.50;;;;;;;27.37;53.51;96292.31;4926811;29;20061;-61
2023/06/16 11:02:29;;;;;;;1.70;1.70;;;;;;;25.79;53.19;96023.41;4926969;28;20450;-65
2023/06/16 11:05:23;;;;;;;1.50;1.50;;;;;;;27.41;53.29;96298.56;4915147;29;20106;-64
2023/06/16 11:08:08;;;;;;;1.73;1.73;;;;;;;27.49;54.31;96294.00;4942619;28;20058;-62
2023/06/16 11:10:52;;;;;;;1.65;1.65;;;;;;;27.76;52.75;96285.00;4959035;28;20657;-63
2023/06/16 11:13:33;;;;;;;1.40;1.40;;;;;;;27.01;53.47;96201.91;4954969;28;20047;-63
2023/06/16 11:16:00;;;;;;;1.58;1.58;;;;;;;25.88;53.82;96070.72;4938440;29;20062;-62
2023/06/16 11:18:29;;;;;;;1.38;1.38;;;;;;;27.64;53.04;96274.78;4955406;28;20070;-59
2023/06/16 11:20:57;;;;;;;1.40;1.40;;;;;;;27.98;52.20;96273.84;4924963;28;20118;-66
2023/06/16 11:23:25;;;;;;;1.60;1.60;;;;;;;26.58;52.92;96115.56;4939455;28;20051;-66
2023/06/16 11:25:52;;;;;;;1.70;1.70;;;;;;;26.66;57.06;96244.59;4937390;29;20134;-64
2023/06/16 11:28:20;;;;;;;1.40;1.40;;;;;;;26.70;55.56;96136.38;4946806;28;20070;-65
2023/06/16 11:30:47;;;;;;;1.50;1.50;;;;;;;27.82;55.68;96245.97;4970073;28;20051;-61
2023/06/16 11:33:15;;;;;;;1.50;1.50;;;;;;;27.43;54.55;96250.50;4976245;28;20585;-62
2023/06/16 11:35:43;;;;;;;1.50;1.50;;;;;;;27.75;55.08;96249.28;4967543;28;20486;-61
2023/06/16 11:38:10;;;;;;;1.60;1.60;;;;;;;28.02;51.29;96251.63;4943406;29;20047;-62